sensor_id;sensor_type;location;lat;lon;timestamp;P1;durP1;ratioP1;P2;durP2;ratioP2
53781;SDS011;39692;53.114;7.060;2022-11-15T00:02:22;18.23;;;10.63;;
53781;SDS011;39692;53.114;7.060;2022-11-15T00:04:48;15.65;;;9.35;;
53781;SDS011;39692;53.114;7.060;2022-11-15T00:07:14;23.80;;;10.32;;
53781;SDS011;39692;53.114;7.060;2022-11-15T00:09:40;18.42;;;10.57;;
53781;SDS011;39692;53.114;7.060;2022-11-15T00:12:06;21.25;;;11.07;;
53781;SDS011;39692;53.114;7.060;2022-11-15T00:14:32;17.65;;;9.98;;
53781;SDS011;39692;53.114;7.060;2022-11-15T00:16:58;19.00;;;10.85;;
53781;SDS011;39692;53.114;7.060;2022-11-15T00:19:24;18.15;;;10.27;;
53781;SDS011;39692;53.114;7.060;2022-11-15T00:21:50;18.35;;;10.05;;
53781;SDS011;39692;53.114;7.060;2022-11-15T00:24:16;19.63;;;9.98;;
53781;SDS011;39692;53.114;7.060;2022-11-15T00:26:42;16.98;;;9.95;;
53781;SDS011;39692;53.114;7.060;2022-11-15T00:29:08;17.95;;;10.50;;
53781;SDS011;39692;53.114;7.060;2022-11-15T00:31:34;18.83;;;10.82;;
53781;SDS011;39692;53.114;7.060;2022-11-15T00:34:00;19.52;;;10.48;;
53781;SDS011;39692;53.114;7.060;2022-11-15T00:36:26;16.88;;;10.73;;
53781;SDS011;39692;53.114;7.060;2022-11-15T00:38:52;17.85;;;10.32;;
53781;SDS011;39692;53.114;7.060;2022-11-15T00:41:19;16.70;;;9.80;;
53781;SDS011;39692;53.114;7.060;2022-11-15T00:43:45;18.65;;;9.43;;
53781;SDS011;39692;53.114;7.060;2022-11-15T00:46:11;18.65;;;10.35;;
53781;SDS011;39692;53.114;7.060;2022-11-15T00:48:37;16.80;;;10.20;;
53781;SDS011;39692;53.114;7.060;2022-11-15T00:51:03;19.50;;;9.35;;
53781;SDS011;39692;53.114;7.060;2022-11-15T00:53:29;20.42;;;11.02;;
53781;SDS011;39692;53.114;7.060;2022-11-15T00:55:55;15.77;;;9.05;;
53781;SDS011;39692;53.114;7.060;2022-11-15T00:58:21;19.15;;;10.25;;
53781;SDS011;39692;53.114;7.060;2022-11-15T01:00:47;17.25;;;9.77;;
53781;SDS011;39692;53.114;7.060;2022-11-15T01:03:13;14.35;;;9.63;;
53781;SDS011;39692;53.114;7.060;2022-11-15T01:05:39;17.40;;;10.10;;
53781;SDS011;39692;53.114;7.060;2022-11-15T01:08:05;15.70;;;9.25;;
53781;SDS011;39692;53.114;7.060;2022-11-15T01:10:31;15.27;;;9.77;;
53781;SDS011;39692;53.114;7.060;2022-11-15T01:12:58;19.42;;;10.20;;
53781;SDS011;39692;53.114;7.060;2022-11-15T01:15:24;19.55;;;9.40;;
53781;SDS011;39692;53.114;7.060;2022-11-15T01:17:50;19.05;;;10.52;;
53781;SDS011;39692;53.114;7.060;2022-11-15T01:20:16;14.70;;;8.30;;
53781;SDS011;39692;53.114;7.060;2022-11-15T01:22:42;13.57;;;8.98;;
53781;SDS011;39692;53.114;7.060;2022-11-15T01:25:08;21.10;;;11.07;;
53781;SDS011;39692;53.114;7.060;2022-11-15T01:27:34;19.63;;;11.57;;
53781;SDS011;39692;53.114;7.060;2022-11-15T01:30:00;19.60;;;10.65;;
53781;SDS011;39692;53.114;7.060;2022-11-15T01:32:26;20.75;;;11.10;;
53781;SDS011;39692;53.114;7.060;2022-11-15T01:34:52;23.55;;;11.77;;
53781;SDS011;39692;53.114;7.060;2022-11-15T01:37:18;23.10;;;12.77;;
53781;SDS011;39692;53.114;7.060;2022-11-15T01:39:44;22.70;;;12.10;;
53781;SDS011;39692;53.114;7.060;2022-11-15T01:42:13;21.13;;;11.25;;
53781;SDS011;39692;53.114;7.060;2022-11-15T01:47:07;20.88;;;10.95;;
53781;SDS011;39692;53.114;7.060;2022-11-15T01:49:35;19.23;;;10.75;;
53781;SDS011;39692;53.114;7.060;2022-11-15T01:52:04;18.08;;;11.23;;
53781;SDS011;39692;53.114;7.060;2022-11-15T01:54:30;19.00;;;11.13;;
53781;SDS011;39692;53.114;7.060;2022-11-15T01:56:58;16.98;;;9.95;;
53781;SDS011;39692;53.114;7.060;2022-11-15T01:59:25;26.75;;;10.95;;
53781;SDS011;39692;53.114;7.060;2022-11-15T02:01:51;17.05;;;9.55;;
53781;SDS011;39692;53.114;7.060;2022-11-15T02:04:28;21.05;;;10.98;;
53781;SDS011;39692;53.114;7.060;2022-11-15T02:06:54;21.38;;;10.38;;
53781;SDS011;39692;53.114;7.060;2022-11-15T02:09:20;19.30;;;10.07;;
53781;SDS011;39692;53.114;7.060;2022-11-15T02:11:46;19.23;;;9.90;;
53781;SDS011;39692;53.114;7.060;2022-11-15T02:14:13;21.52;;;10.88;;
53781;SDS011;39692;53.114;7.060;2022-11-15T02:16:47;19.40;;;10.48;;
53781;SDS011;39692;53.114;7.060;2022-11-15T02:21:46;15.75;;;9.65;;
53781;SDS011;39692;53.114;7.060;2022-11-15T02:35:01;20.45;;;10.57;;
53781;SDS011;39692;53.114;7.060;2022-11-15T02:37:37;19.38;;;10.35;;
53781;SDS011;39692;53.114;7.060;2022-11-15T02:40:13;16.80;;;9.38;;
53781;SDS011;39692;53.114;7.060;2022-11-15T02:42:49;21.85;;;10.25;;
53781;SDS011;39692;53.114;7.060;2022-11-15T02:45:43;18.20;;;9.40;;
53781;SDS011;39692;53.114;7.060;2022-11-15T02:48:10;21.08;;;10.70;;
53781;SDS011;39692;53.114;7.060;2022-11-15T02:50:37;18.83;;;9.90;;
53781;SDS011;39692;53.114;7.060;2022-11-15T02:53:04;19.63;;;10.15;;
53781;SDS011;39692;53.114;7.060;2022-11-15T02:55:31;17.50;;;8.80;;
53781;SDS011;39692;53.114;7.060;2022-11-15T02:58:05;20.33;;;10.80;;
53781;SDS011;39692;53.114;7.060;2022-11-15T03:00:38;22.25;;;11.52;;
53781;SDS011;39692;53.114;7.060;2022-11-15T03:08:39;18.23;;;10.00;;
53781;SDS011;39692;53.114;7.060;2022-11-15T03:11:09;21.42;;;11.55;;
53781;SDS011;39692;53.114;7.060;2022-11-15T03:16:07;18.35;;;9.80;;
53781;SDS011;39692;53.114;7.060;2022-11-15T03:18:36;20.25;;;9.70;;
53781;SDS011;39692;53.114;7.060;2022-11-15T03:21:04;21.15;;;10.10;;
53781;SDS011;39692;53.114;7.060;2022-11-15T03:23:32;21.42;;;10.65;;
53781;SDS011;39692;53.114;7.060;2022-11-15T03:25:59;19.20;;;10.27;;
53781;SDS011;39692;53.114;7.060;2022-11-15T03:28:50;20.10;;;10.77;;
53781;SDS011;39692;53.114;7.060;2022-11-15T03:31:12;20.58;;;9.43;;
53781;SDS011;39692;53.114;7.060;2022-11-15T03:33:58;26.58;;;11.23;;
53781;SDS011;39692;53.114;7.060;2022-11-15T03:36:26;22.98;;;11.95;;
53781;SDS011;39692;53.114;7.060;2022-11-15T03:38:56;31.30;;;11.82;;
53781;SDS011;39692;53.114;7.060;2022-11-15T03:41:27;20.63;;;11.13;;
53781;SDS011;39692;53.114;7.060;2022-11-15T03:44:30;24.77;;;11.60;;
53781;SDS011;39692;53.114;7.060;2022-11-15T03:46:47;19.77;;;10.40;;
53781;SDS011;39692;53.114;7.060;2022-11-15T03:49:17;20.80;;;11.05;;
53781;SDS011;39692;53.114;7.060;2022-11-15T03:51:45;19.98;;;10.25;;
53781;SDS011;39692;53.114;7.060;2022-11-15T03:54:12;19.83;;;11.07;;
53781;SDS011;39692;53.114;7.060;2022-11-15T03:56:38;21.98;;;10.43;;
53781;SDS011;39692;53.114;7.060;2022-11-15T03:59:04;21.92;;;11.43;;
53781;SDS011;39692;53.114;7.060;2022-11-15T04:01:30;30.67;;;11.50;;
53781;SDS011;39692;53.114;7.060;2022-11-15T04:03:56;21.42;;;10.82;;
53781;SDS011;39692;53.114;7.060;2022-11-15T04:06:22;22.13;;;11.63;;
53781;SDS011;39692;53.114;7.060;2022-11-15T04:08:48;20.95;;;10.27;;
53781;SDS011;39692;53.114;7.060;2022-11-15T04:11:14;22.45;;;11.50;;
53781;SDS011;39692;53.114;7.060;2022-11-15T04:13:40;23.55;;;10.55;;
53781;SDS011;39692;53.114;7.060;2022-11-15T04:16:06;22.73;;;12.35;;
53781;SDS011;39692;53.114;7.060;2022-11-15T04:18:32;21.52;;;11.65;;
53781;SDS011;39692;53.114;7.060;2022-11-15T04:20:58;22.48;;;11.27;;
53781;SDS011;39692;53.114;7.060;2022-11-15T04:23:43;20.60;;;10.40;;
53781;SDS011;39692;53.114;7.060;2022-11-15T04:26:28;22.70;;;11.90;;
53781;SDS011;39692;53.114;7.060;2022-11-15T04:28:54;22.00;;;11.30;;
53781;SDS011;39692;53.114;7.060;2022-11-15T04:31:39;22.40;;;11.45;;
53781;SDS011;39692;53.114;7.060;2022-11-15T04:34:05;25.33;;;10.32;;
53781;SDS011;39692;53.114;7.060;2022-11-15T04:36:31;19.60;;;10.68;;
53781;SDS011;39692;53.114;7.060;2022-11-15T04:39:16;19.00;;;9.82;;
53781;SDS011;39692;53.114;7.060;2022-11-15T04:41:42;25.20;;;11.82;;
53781;SDS011;39692;53.114;7.060;2022-11-15T04:44:08;26.08;;;12.18;;
53781;SDS011;39692;53.114;7.060;2022-11-15T04:46:34;18.88;;;11.32;;
53781;SDS011;39692;53.114;7.060;2022-11-15T04:49:00;28.02;;;12.05;;
53781;SDS011;39692;53.114;7.060;2022-11-15T04:51:26;23.85;;;12.10;;
53781;SDS011;39692;53.114;7.060;2022-11-15T04:53:53;23.70;;;12.32;;
53781;SDS011;39692;53.114;7.060;2022-11-15T04:56:19;26.27;;;12.00;;
53781;SDS011;39692;53.114;7.060;2022-11-15T04:58:45;28.45;;;13.00;;
53781;SDS011;39692;53.114;7.060;2022-11-15T05:01:11;25.90;;;12.70;;
53781;SDS011;39692;53.114;7.060;2022-11-15T05:03:40;27.75;;;11.75;;
53781;SDS011;39692;53.114;7.060;2022-11-15T05:06:24;26.05;;;13.02;;
53781;SDS011;39692;53.114;7.060;2022-11-15T05:08:50;26.65;;;14.35;;
53781;SDS011;39692;53.114;7.060;2022-11-15T05:11:16;24.85;;;11.82;;
53781;SDS011;39692;53.114;7.060;2022-11-15T05:13:43;33.10;;;15.07;;
53781;SDS011;39692;53.114;7.060;2022-11-15T05:16:09;31.98;;;14.98;;
53781;SDS011;39692;53.114;7.060;2022-11-15T05:18:35;24.25;;;13.30;;
53781;SDS011;39692;53.114;7.060;2022-11-15T05:21:04;26.23;;;14.90;;
53781;SDS011;39692;53.114;7.060;2022-11-15T05:23:31;31.90;;;12.52;;
53781;SDS011;39692;53.114;7.060;2022-11-15T05:26:03;31.67;;;16.33;;
53781;SDS011;39692;53.114;7.060;2022-11-15T05:28:30;34.42;;;17.00;;
53781;SDS011;39692;53.114;7.060;2022-11-15T05:31:02;28.65;;;13.30;;
53781;SDS011;39692;53.114;7.060;2022-11-15T05:33:28;27.08;;;13.77;;
53781;SDS011;39692;53.114;7.060;2022-11-15T05:35:56;25.65;;;13.63;;
53781;SDS011;39692;53.114;7.060;2022-11-15T05:38:23;33.30;;;15.23;;
53781;SDS011;39692;53.114;7.060;2022-11-15T05:40:49;29.98;;;15.48;;
53781;SDS011;39692;53.114;7.060;2022-11-15T05:43:15;28.08;;;15.13;;
53781;SDS011;39692;53.114;7.060;2022-11-15T05:45:41;30.17;;;14.55;;
53781;SDS011;39692;53.114;7.060;2022-11-15T05:48:07;29.73;;;14.40;;
53781;SDS011;39692;53.114;7.060;2022-11-15T05:50:35;33.00;;;15.00;;
53781;SDS011;39692;53.114;7.060;2022-11-15T05:53:02;33.15;;;15.23;;
53781;SDS011;39692;53.114;7.060;2022-11-15T05:55:28;30.90;;;16.73;;
53781;SDS011;39692;53.114;7.060;2022-11-15T05:57:54;41.47;;;14.65;;
53781;SDS011;39692;53.114;7.060;2022-11-15T06:00:20;33.00;;;14.98;;
53781;SDS011;39692;53.114;7.060;2022-11-15T06:02:46;34.17;;;15.35;;
53781;SDS011;39692;53.114;7.060;2022-11-15T06:05:13;36.28;;;14.80;;
53781;SDS011;39692;53.114;7.060;2022-11-15T06:07:39;31.98;;;14.48;;
53781;SDS011;39692;53.114;7.060;2022-11-15T06:10:05;34.53;;;14.77;;
53781;SDS011;39692;53.114;7.060;2022-11-15T06:12:31;26.00;;;14.77;;
53781;SDS011;39692;53.114;7.060;2022-11-15T06:14:57;33.25;;;14.50;;
53781;SDS011;39692;53.114;7.060;2022-11-15T06:17:23;30.45;;;13.88;;
53781;SDS011;39692;53.114;7.060;2022-11-15T06:19:49;28.60;;;14.00;;
53781;SDS011;39692;53.114;7.060;2022-11-15T06:22:15;24.10;;;13.05;;
53781;SDS011;39692;53.114;7.060;2022-11-15T06:24:41;26.75;;;15.13;;
53781;SDS011;39692;53.114;7.060;2022-11-15T06:27:09;26.55;;;14.55;;
53781;SDS011;39692;53.114;7.060;2022-11-15T06:29:36;26.67;;;14.13;;
53781;SDS011;39692;53.114;7.060;2022-11-15T06:32:02;23.38;;;12.20;;
53781;SDS011;39692;53.114;7.060;2022-11-15T06:34:28;26.92;;;13.73;;
53781;SDS011;39692;53.114;7.060;2022-11-15T06:36:54;27.67;;;13.00;;
53781;SDS011;39692;53.114;7.060;2022-11-15T06:39:20;28.40;;;13.95;;
53781;SDS011;39692;53.114;7.060;2022-11-15T06:41:46;25.73;;;13.77;;
53781;SDS011;39692;53.114;7.060;2022-11-15T06:44:12;25.20;;;13.10;;
53781;SDS011;39692;53.114;7.060;2022-11-15T06:46:38;24.30;;;12.57;;
53781;SDS011;39692;53.114;7.060;2022-11-15T06:49:04;26.02;;;12.35;;
53781;SDS011;39692;53.114;7.060;2022-11-15T06:51:30;23.45;;;13.77;;
53781;SDS011;39692;53.114;7.060;2022-11-15T06:53:56;24.45;;;12.57;;
53781;SDS011;39692;53.114;7.060;2022-11-15T06:56:22;21.17;;;12.40;;
53781;SDS011;39692;53.114;7.060;2022-11-15T06:58:48;23.42;;;13.02;;
53781;SDS011;39692;53.114;7.060;2022-11-15T07:01:14;25.67;;;12.85;;
53781;SDS011;39692;53.114;7.060;2022-11-15T07:03:41;25.38;;;12.23;;
53781;SDS011;39692;53.114;7.060;2022-11-15T07:06:08;24.95;;;12.32;;
53781;SDS011;39692;53.114;7.060;2022-11-15T07:08:35;21.83;;;11.43;;
53781;SDS011;39692;53.114;7.060;2022-11-15T07:11:02;25.05;;;12.55;;
53781;SDS011;39692;53.114;7.060;2022-11-15T07:13:29;22.05;;;12.85;;
53781;SDS011;39692;53.114;7.060;2022-11-15T07:15:58;20.20;;;11.38;;
53781;SDS011;39692;53.114;7.060;2022-11-15T07:18:24;20.45;;;11.93;;
53781;SDS011;39692;53.114;7.060;2022-11-15T07:20:52;18.48;;;10.63;;
53781;SDS011;39692;53.114;7.060;2022-11-15T07:23:18;20.38;;;12.45;;
53781;SDS011;39692;53.114;7.060;2022-11-15T07:25:44;22.52;;;12.80;;
53781;SDS011;39692;53.114;7.060;2022-11-15T07:28:10;22.98;;;12.05;;
53781;SDS011;39692;53.114;7.060;2022-11-15T07:30:36;21.60;;;12.00;;
53781;SDS011;39692;53.114;7.060;2022-11-15T07:33:02;19.23;;;11.23;;
53781;SDS011;39692;53.114;7.060;2022-11-15T07:35:29;19.00;;;11.68;;
53781;SDS011;39692;53.114;7.060;2022-11-15T07:37:59;22.05;;;12.45;;
53781;SDS011;39692;53.114;7.060;2022-11-15T07:40:26;20.55;;;11.25;;
53781;SDS011;39692;53.114;7.060;2022-11-15T07:42:58;20.95;;;12.38;;
53781;SDS011;39692;53.114;7.060;2022-11-15T07:45:24;18.67;;;11.40;;
53781;SDS011;39692;53.114;7.060;2022-11-15T07:47:53;19.88;;;11.32;;
53781;SDS011;39692;53.114;7.060;2022-11-15T07:50:21;23.05;;;12.15;;
53781;SDS011;39692;53.114;7.060;2022-11-15T07:52:47;19.10;;;11.27;;
53781;SDS011;39692;53.114;7.060;2022-11-15T07:55:13;20.40;;;11.70;;
53781;SDS011;39692;53.114;7.060;2022-11-15T07:57:39;18.70;;;11.23;;
53781;SDS011;39692;53.114;7.060;2022-11-15T08:00:05;19.60;;;10.23;;
53781;SDS011;39692;53.114;7.060;2022-11-15T08:02:32;20.67;;;11.48;;
53781;SDS011;39692;53.114;7.060;2022-11-15T08:04:58;22.30;;;13.30;;
53781;SDS011;39692;53.114;7.060;2022-11-15T08:07:24;23.02;;;11.63;;
53781;SDS011;39692;53.114;7.060;2022-11-15T08:09:50;20.02;;;11.70;;
53781;SDS011;39692;53.114;7.060;2022-11-15T08:12:16;24.35;;;12.50;;
53781;SDS011;39692;53.114;7.060;2022-11-15T08:14:42;19.15;;;11.80;;
53781;SDS011;39692;53.114;7.060;2022-11-15T08:17:09;24.88;;;12.15;;
53781;SDS011;39692;53.114;7.060;2022-11-15T08:19:35;22.35;;;12.70;;
53781;SDS011;39692;53.114;7.060;2022-11-15T08:22:01;21.95;;;14.20;;
53781;SDS011;39692;53.114;7.060;2022-11-15T08:24:27;22.92;;;13.15;;
53781;SDS011;39692;53.114;7.060;2022-11-15T08:26:53;22.05;;;12.00;;
53781;SDS011;39692;53.114;7.060;2022-11-15T08:29:19;20.90;;;13.25;;
53781;SDS011;39692;53.114;7.060;2022-11-15T08:31:45;22.85;;;13.02;;
53781;SDS011;39692;53.114;7.060;2022-11-15T08:34:11;23.73;;;12.15;;
53781;SDS011;39692;53.114;7.060;2022-11-15T08:36:37;23.42;;;13.27;;
53781;SDS011;39692;53.114;7.060;2022-11-15T08:39:03;21.50;;;13.13;;
53781;SDS011;39692;53.114;7.060;2022-11-15T08:41:35;20.52;;;12.20;;
53781;SDS011;39692;53.114;7.060;2022-11-15T08:44:02;23.42;;;13.25;;
53781;SDS011;39692;53.114;7.060;2022-11-15T08:46:28;22.55;;;14.23;;
53781;SDS011;39692;53.114;7.060;2022-11-15T08:48:54;20.77;;;12.73;;
53781;SDS011;39692;53.114;7.060;2022-11-15T08:51:20;22.50;;;12.25;;
53781;SDS011;39692;53.114;7.060;2022-11-15T08:53:46;22.65;;;13.55;;
53781;SDS011;39692;53.114;7.060;2022-11-15T08:56:13;23.77;;;13.63;;
53781;SDS011;39692;53.114;7.060;2022-11-15T08:58:40;22.95;;;14.27;;
53781;SDS011;39692;53.114;7.060;2022-11-15T09:01:13;27.00;;;14.65;;
53781;SDS011;39692;53.114;7.060;2022-11-15T09:03:40;21.77;;;15.13;;
53781;SDS011;39692;53.114;7.060;2022-11-15T09:06:06;20.45;;;12.93;;
53781;SDS011;39692;53.114;7.060;2022-11-15T09:08:32;24.27;;;13.60;;
53781;SDS011;39692;53.114;7.060;2022-11-15T09:11:02;22.25;;;14.63;;
53781;SDS011;39692;53.114;7.060;2022-11-15T09:13:28;23.65;;;13.77;;
53781;SDS011;39692;53.114;7.060;2022-11-15T09:15:57;23.05;;;13.88;;
53781;SDS011;39692;53.114;7.060;2022-11-15T09:18:24;26.63;;;14.68;;
53781;SDS011;39692;53.114;7.060;2022-11-15T09:20:50;20.92;;;14.30;;
53781;SDS011;39692;53.114;7.060;2022-11-15T09:23:16;22.88;;;14.07;;
53781;SDS011;39692;53.114;7.060;2022-11-15T09:25:42;27.20;;;16.15;;
53781;SDS011;39692;53.114;7.060;2022-11-15T09:28:08;25.30;;;13.93;;
53781;SDS011;39692;53.114;7.060;2022-11-15T09:30:34;21.85;;;12.50;;
53781;SDS011;39692;53.114;7.060;2022-11-15T09:33:10;21.15;;;13.68;;
53781;SDS011;39692;53.114;7.060;2022-11-15T09:35:36;21.27;;;11.88;;
53781;SDS011;39692;53.114;7.060;2022-11-15T09:38:02;20.92;;;12.82;;
53781;SDS011;39692;53.114;7.060;2022-11-15T09:40:29;21.38;;;12.65;;
53781;SDS011;39692;53.114;7.060;2022-11-15T09:45:32;25.48;;;12.10;;
53781;SDS011;39692;53.114;7.060;2022-11-15T09:50:47;21.33;;;11.90;;
53781;SDS011;39692;53.114;7.060;2022-11-15T09:53:17;20.52;;;11.98;;
53781;SDS011;39692;53.114;7.060;2022-11-15T10:00:55;23.70;;;12.50;;
53781;SDS011;39692;53.114;7.060;2022-11-15T10:03:25;18.65;;;12.13;;
53781;SDS011;39692;53.114;7.060;2022-11-15T10:05:52;25.42;;;12.95;;
53781;SDS011;39692;53.114;7.060;2022-11-15T10:10:47;19.70;;;12.88;;
53781;SDS011;39692;53.114;7.060;2022-11-15T10:15:44;20.58;;;13.55;;
53781;SDS011;39692;53.114;7.060;2022-11-15T10:23:06;19.30;;;11.55;;
53781;SDS011;39692;53.114;7.060;2022-11-15T10:25:35;19.20;;;12.10;;
53781;SDS011;39692;53.114;7.060;2022-11-15T10:33:12;22.55;;;12.95;;
53781;SDS011;39692;53.114;7.060;2022-11-15T10:35:39;19.65;;;12.40;;
53781;SDS011;39692;53.114;7.060;2022-11-15T10:38:07;20.33;;;11.80;;
53781;SDS011;39692;53.114;7.060;2022-11-15T10:40:34;22.40;;;12.15;;
53781;SDS011;39692;53.114;7.060;2022-11-15T10:43:18;18.50;;;11.10;;
53781;SDS011;39692;53.114;7.060;2022-11-15T10:45:45;20.17;;;12.27;;
53781;SDS011;39692;53.114;7.060;2022-11-15T10:50:38;19.90;;;12.60;;
53781;SDS011;39692;53.114;7.060;2022-11-15T10:53:11;19.27;;;11.20;;
53781;SDS011;39692;53.114;7.060;2022-11-15T10:55:38;20.00;;;12.20;;
53781;SDS011;39692;53.114;7.060;2022-11-15T10:58:18;17.88;;;12.00;;
53781;SDS011;39692;53.114;7.060;2022-11-15T11:00:45;17.15;;;10.95;;
53781;SDS011;39692;53.114;7.060;2022-11-15T11:05:50;15.38;;;10.70;;
53781;SDS011;39692;53.114;7.060;2022-11-15T11:08:28;18.70;;;11.23;;
53781;SDS011;39692;53.114;7.060;2022-11-15T11:10:55;16.02;;;9.95;;
53781;SDS011;39692;53.114;7.060;2022-11-15T11:13:22;16.50;;;11.57;;
53781;SDS011;39692;53.114;7.060;2022-11-15T11:15:55;15.90;;;9.75;;
53781;SDS011;39692;53.114;7.060;2022-11-15T11:18:26;15.98;;;11.40;;
53781;SDS011;39692;53.114;7.060;2022-11-15T11:20:56;17.45;;;11.82;;
53781;SDS011;39692;53.114;7.060;2022-11-15T11:24:08;17.52;;;9.85;;
53781;SDS011;39692;53.114;7.060;2022-11-15T11:26:16;15.55;;;11.18;;
53781;SDS011;39692;53.114;7.060;2022-11-15T11:28:55;20.63;;;11.88;;
53781;SDS011;39692;53.114;7.060;2022-11-15T11:31:36;16.00;;;11.20;;
53781;SDS011;39692;53.114;7.060;2022-11-15T11:36:58;15.15;;;12.20;;
53781;SDS011;39692;53.114;7.060;2022-11-15T11:47:23;16.08;;;11.07;;
53781;SDS011;39692;53.114;7.060;2022-11-15T11:49:54;15.18;;;10.32;;
53781;SDS011;39692;53.114;7.060;2022-11-15T11:52:29;14.25;;;9.88;;
53781;SDS011;39692;53.114;7.060;2022-11-15T11:55:13;13.88;;;10.60;;
53781;SDS011;39692;53.114;7.060;2022-11-15T12:00:29;13.90;;;10.50;;
53781;SDS011;39692;53.114;7.060;2022-11-15T12:03:12;16.20;;;12.00;;
53781;SDS011;39692;53.114;7.060;2022-11-15T12:05:45;16.70;;;11.43;;
53781;SDS011;39692;53.114;7.060;2022-11-15T12:10:59;13.73;;;12.13;;
53781;SDS011;39692;53.114;7.060;2022-11-15T12:13:41;11.05;;;6.63;;
53781;SDS011;39692;53.114;7.060;2022-11-15T12:16:16;11.60;;;6.50;;
53781;SDS011;39692;53.114;7.060;2022-11-15T12:18:49;9.90;;;6.10;;
53781;SDS011;39692;53.114;7.060;2022-11-15T12:26:25;7.22;;;5.07;;
53781;SDS011;39692;53.114;7.060;2022-11-15T12:28:58;7.82;;;4.93;;
53781;SDS011;39692;53.114;7.060;2022-11-15T12:31:31;7.80;;;5.63;;
53781;SDS011;39692;53.114;7.060;2022-11-15T12:36:48;9.60;;;5.05;;
53781;SDS011;39692;53.114;7.060;2022-11-15T12:39:15;7.82;;;5.55;;
53781;SDS011;39692;53.114;7.060;2022-11-15T12:41:43;7.70;;;6.13;;
53781;SDS011;39692;53.114;7.060;2022-11-15T12:44:10;8.30;;;6.47;;
53781;SDS011;39692;53.114;7.060;2022-11-15T12:59:50;5.97;;;4.47;;
53781;SDS011;39692;53.114;7.060;2022-11-15T13:17:40;6.97;;;4.40;;
53781;SDS011;39692;53.114;7.060;2022-11-15T13:27:51;6.93;;;4.68;;
53781;SDS011;39692;53.114;7.060;2022-11-15T13:30:20;5.60;;;4.25;;
53781;SDS011;39692;53.114;7.060;2022-11-15T13:32:47;7.07;;;4.78;;
53781;SDS011;39692;53.114;7.060;2022-11-15T13:35:21;6.85;;;3.88;;
53781;SDS011;39692;53.114;7.060;2022-11-15T13:37:47;9.30;;;5.07;;
53781;SDS011;39692;53.114;7.060;2022-11-15T13:42:45;5.53;;;4.05;;
53781;SDS011;39692;53.114;7.060;2022-11-15T13:45:15;6.68;;;4.88;;
53781;SDS011;39692;53.114;7.060;2022-11-15T13:47:42;4.70;;;3.25;;
53781;SDS011;39692;53.114;7.060;2022-11-15T13:50:12;5.32;;;3.90;;
53781;SDS011;39692;53.114;7.060;2022-11-15T13:52:38;4.63;;;3.13;;
53781;SDS011;39692;53.114;7.060;2022-11-15T13:57:58;4.40;;;2.80;;
53781;SDS011;39692;53.114;7.060;2022-11-15T14:02:57;4.82;;;2.75;;
53781;SDS011;39692;53.114;7.060;2022-11-15T14:05:32;4.68;;;2.42;;
53781;SDS011;39692;53.114;7.060;2022-11-15T14:08:12;4.65;;;2.40;;
53781;SDS011;39692;53.114;7.060;2022-11-15T14:10:48;6.25;;;3.78;;
53781;SDS011;39692;53.114;7.060;2022-11-15T14:13:30;4.93;;;3.08;;
53781;SDS011;39692;53.114;7.060;2022-11-15T14:16:16;5.53;;;3.05;;
53781;SDS011;39692;53.114;7.060;2022-11-15T14:18:49;5.53;;;2.83;;
53781;SDS011;39692;53.114;7.060;2022-11-15T14:21:16;6.53;;;3.10;;
53781;SDS011;39692;53.114;7.060;2022-11-15T14:23:42;3.88;;;2.30;;
53781;SDS011;39692;53.114;7.060;2022-11-15T14:29:21;4.25;;;2.72;;
53781;SDS011;39692;53.114;7.060;2022-11-15T14:31:47;4.82;;;2.45;;
53781;SDS011;39692;53.114;7.060;2022-11-15T14:34:12;6.70;;;3.03;;
53781;SDS011;39692;53.114;7.060;2022-11-15T14:36:38;4.88;;;3.05;;
53781;SDS011;39692;53.114;7.060;2022-11-15T14:39:04;5.18;;;2.40;;
53781;SDS011;39692;53.114;7.060;2022-11-15T14:41:33;4.10;;;2.25;;
53781;SDS011;39692;53.114;7.060;2022-11-15T14:44:03;4.40;;;2.30;;
53781;SDS011;39692;53.114;7.060;2022-11-15T14:46:29;4.60;;;2.65;;
53781;SDS011;39692;53.114;7.060;2022-11-15T14:48:55;4.03;;;2.13;;
53781;SDS011;39692;53.114;7.060;2022-11-15T14:51:20;4.65;;;2.58;;
53781;SDS011;39692;53.114;7.060;2022-11-15T14:53:46;4.35;;;2.72;;
53781;SDS011;39692;53.114;7.060;2022-11-15T14:56:12;3.67;;;2.38;;
53781;SDS011;39692;53.114;7.060;2022-11-15T14:58:39;4.32;;;2.78;;
53781;SDS011;39692;53.114;7.060;2022-11-15T15:01:16;6.63;;;2.92;;
53781;SDS011;39692;53.114;7.060;2022-11-15T15:03:48;4.60;;;2.25;;
53781;SDS011;39692;53.114;7.060;2022-11-15T15:06:16;7.47;;;2.78;;
53781;SDS011;39692;53.114;7.060;2022-11-15T15:08:42;3.80;;;2.63;;
53781;SDS011;39692;53.114;7.060;2022-11-15T15:11:16;5.93;;;2.60;;
53781;SDS011;39692;53.114;7.060;2022-11-15T15:13:48;3.90;;;2.88;;
53781;SDS011;39692;53.114;7.060;2022-11-15T15:16:14;4.50;;;2.70;;
53781;SDS011;39692;53.114;7.060;2022-11-15T15:18:40;6.80;;;2.42;;
53781;SDS011;39692;53.114;7.060;2022-11-15T15:21:13;8.02;;;2.75;;
53781;SDS011;39692;53.114;7.060;2022-11-15T15:23:44;4.05;;;2.70;;
53781;SDS011;39692;53.114;7.060;2022-11-15T15:26:10;3.85;;;2.50;;
53781;SDS011;39692;53.114;7.060;2022-11-15T15:28:36;6.53;;;2.97;;
53781;SDS011;39692;53.114;7.060;2022-11-15T15:31:03;5.15;;;2.47;;
53781;SDS011;39692;53.114;7.060;2022-11-15T15:33:29;4.20;;;2.78;;
53781;SDS011;39692;53.114;7.060;2022-11-15T15:35:54;4.95;;;2.55;;
53781;SDS011;39692;53.114;7.060;2022-11-15T15:38:20;5.60;;;2.83;;
53781;SDS011;39692;53.114;7.060;2022-11-15T15:40:46;5.93;;;2.90;;
53781;SDS011;39692;53.114;7.060;2022-11-15T15:43:12;4.55;;;2.80;;
53781;SDS011;39692;53.114;7.060;2022-11-15T15:45:38;7.10;;;3.53;;
53781;SDS011;39692;53.114;7.060;2022-11-15T15:48:05;5.35;;;3.17;;
53781;SDS011;39692;53.114;7.060;2022-11-15T15:50:33;6.82;;;3.25;;
53781;SDS011;39692;53.114;7.060;2022-11-15T15:53:00;4.63;;;2.78;;
53781;SDS011;39692;53.114;7.060;2022-11-15T15:55:27;4.55;;;2.55;;
53781;SDS011;39692;53.114;7.060;2022-11-15T15:57:54;4.57;;;2.75;;
53781;SDS011;39692;53.114;7.060;2022-11-15T16:00:21;5.78;;;2.97;;
53781;SDS011;39692;53.114;7.060;2022-11-15T16:02:48;5.22;;;3.70;;
53781;SDS011;39692;53.114;7.060;2022-11-15T16:05:14;5.45;;;3.42;;
53781;SDS011;39692;53.114;7.060;2022-11-15T16:07:41;5.68;;;3.03;;
53781;SDS011;39692;53.114;7.060;2022-11-15T16:10:14;4.85;;;3.03;;
53781;SDS011;39692;53.114;7.060;2022-11-15T16:12:41;5.00;;;2.90;;
53781;SDS011;39692;53.114;7.060;2022-11-15T16:15:08;4.95;;;2.83;;
53781;SDS011;39692;53.114;7.060;2022-11-15T16:17:35;9.50;;;3.22;;
53781;SDS011;39692;53.114;7.060;2022-11-15T16:20:03;4.65;;;3.05;;
53781;SDS011;39692;53.114;7.060;2022-11-15T16:22:29;5.22;;;3.25;;
53781;SDS011;39692;53.114;7.060;2022-11-15T16:24:56;5.47;;;3.13;;
53781;SDS011;39692;53.114;7.060;2022-11-15T16:27:22;5.75;;;3.58;;
53781;SDS011;39692;53.114;7.060;2022-11-15T16:29:48;5.90;;;3.42;;
53781;SDS011;39692;53.114;7.060;2022-11-15T16:32:16;6.22;;;3.95;;
53781;SDS011;39692;53.114;7.060;2022-11-15T16:34:42;6.55;;;3.70;;
53781;SDS011;39692;53.114;7.060;2022-11-15T16:37:13;5.53;;;3.60;;
53781;SDS011;39692;53.114;7.060;2022-11-15T16:39:44;7.47;;;4.15;;
53781;SDS011;39692;53.114;7.060;2022-11-15T16:42:10;5.55;;;3.40;;